createdAt,value
2023-04-10T00:00:00.545Z,7.82
2023-04-10T00:02:30.861Z,7.82
2023-04-10T00:05:03.834Z,7.81
2023-04-10T00:07:34.338Z,7.81
2023-04-10T00:10:04.530Z,7.78
2023-04-10T00:12:34.621Z,7.76
2023-04-10T00:15:04.742Z,7.74
2023-04-10T00:17:34.900Z,7.71
2023-04-10T00:20:08.919Z,7.65
2023-04-10T00:22:39.016Z,7.66
2023-04-10T00:25:10.112Z,7.65
2023-04-10T00:27:40.196Z,7.66
2023-04-10T00:30:11.406Z,7.61
2023-04-10T00:32:41.729Z,7.57
2023-04-10T00:35:14.782Z,7.60
2023-04-10T00:37:44.960Z,7.57
2023-04-10T00:40:15.658Z,7.53
2023-04-10T00:42:45.803Z,7.52
2023-04-10T00:45:15.927Z,7.54
2023-04-10T00:47:46.074Z,7.47
2023-04-10T00:50:19.279Z,7.46
2023-04-10T00:52:49.468Z,7.40
2023-04-10T00:55:19.612Z,7.37
2023-04-10T00:57:50.857Z,7.35
2023-04-10T01:00:21.837Z,7.37
2023-04-10T01:02:52.161Z,7.32
2023-04-10T01:05:25.709Z,7.27
2023-04-10T01:08:02.743Z,7.23
2023-04-10T01:10:39.294Z,7.19
2023-04-10T01:13:19.025Z,7.14
2023-04-10T01:15:52.578Z,7.12
2023-04-10T01:18:27.860Z,7.03
2023-04-10T01:21:01.795Z,7.02
2023-04-10T01:23:47.398Z,6.98
2023-04-10T01:26:20.037Z,6.95
2023-04-10T01:28:56.388Z,6.91
2023-04-10T01:31:32.097Z,6.88
2023-04-10T01:34:07.347Z,6.89
2023-04-10T01:36:41.252Z,6.85
2023-04-10T01:39:11.856Z,6.79
2023-04-10T01:41:45.085Z,6.80
2023-04-10T01:44:19.226Z,6.82
2023-04-10T01:46:51.880Z,6.80
2023-04-10T01:49:22.244Z,6.77
2023-04-10T01:51:54.462Z,6.76
2023-04-10T01:54:24.865Z,6.68
2023-04-10T01:56:55.091Z,6.63
2023-04-10T01:59:28.281Z,6.64
2023-04-10T02:02:00.103Z,6.63
2023-04-10T02:04:30.650Z,6.66
2023-04-10T02:07:06.598Z,6.68
2023-04-10T02:09:44.559Z,6.67
2023-04-10T02:12:20.106Z,6.65
2023-04-10T02:14:53.632Z,6.64
2023-04-10T02:17:29.719Z,6.61
2023-04-10T02:20:00.598Z,6.58
2023-04-10T02:22:31.032Z,6.54
2023-04-10T02:25:02.070Z,6.51
2023-04-10T02:27:37.315Z,6.49
2023-04-10T02:30:11.273Z,6.46
2023-04-10T02:32:42.219Z,6.43
2023-04-10T02:35:12.636Z,6.41
2023-04-10T02:37:43.016Z,6.37
2023-04-10T02:40:14.770Z,6.36
2023-04-10T02:42:53.325Z,6.30
2023-04-10T02:45:26.293Z,6.26
2023-04-10T02:47:56.458Z,6.25
2023-04-10T02:50:29.806Z,6.29
2023-04-10T02:53:00.202Z,6.27
2023-04-10T02:55:30.449Z,6.25
2023-04-10T02:58:00.593Z,6.26
2023-04-10T03:00:33.692Z,6.20
2023-04-10T03:03:23.289Z,6.22
2023-04-10T03:05:57.277Z,6.20
2023-04-10T03:08:32.705Z,6.21
2023-04-10T03:11:02.868Z,6.21
2023-04-10T03:13:32.949Z,6.22
2023-04-10T03:16:05.885Z,6.18
2023-04-10T03:18:36.236Z,6.12
2023-04-10T03:21:06.658Z,6.07
2023-04-10T03:23:36.999Z,6.07
2023-04-10T03:26:07.702Z,6.07
2023-04-10T03:28:41.647Z,6.06
2023-04-10T03:31:16.232Z,6.04
2023-04-10T03:33:48.092Z,5.99
2023-04-10T03:36:18.481Z,5.95
2023-04-10T03:38:48.582Z,5.95
2023-04-10T03:41:18.813Z,5.91
2023-04-10T03:43:49.018Z,5.93
2023-04-10T03:46:22.867Z,5.89
2023-04-10T03:48:54.375Z,5.89
2023-04-10T03:51:25.449Z,5.89
2023-04-10T03:53:56.049Z,5.86
2023-04-10T03:56:26.514Z,5.88
2023-04-10T03:58:56.819Z,5.87
2023-04-10T04:01:29.591Z,5.85
2023-04-10T04:04:04.921Z,5.84
2023-04-10T04:06:53.758Z,5.83
2023-04-10T04:09:44.016Z,5.78
2023-04-10T04:12:43.129Z,5.78
2023-04-10T04:15:26.796Z,5.74
2023-04-10T04:18:18.411Z,5.68
2023-04-10T04:20:52.773Z,5.65
2023-04-10T04:23:46.024Z,5.62
2023-04-10T04:26:29.565Z,5.61
2023-04-10T04:29:18.278Z,5.57
2023-04-10T04:32:01.885Z,5.59
2023-04-10T04:34:44.061Z,5.57
2023-04-10T04:37:23.336Z,5.60
2023-04-10T04:40:05.225Z,5.60
2023-04-10T04:42:43.216Z,5.59
2023-04-10T04:45:27.619Z,5.60
2023-04-10T04:48:18.100Z,5.60
2023-04-10T04:51:09.640Z,5.59
2023-04-10T04:53:52.033Z,5.59
2023-04-10T04:56:58.002Z,5.55
2023-04-10T04:59:48.416Z,5.68
2023-04-10T05:02:38.598Z,5.87
2023-04-10T05:05:27.295Z,6.03
2023-04-10T05:08:35.298Z,6.16
2023-04-10T05:11:12.872Z,6.22
2023-04-10T05:13:59.973Z,6.23
2023-04-10T05:17:05.196Z,6.25
2023-04-10T05:19:58.147Z,6.33
2023-04-10T05:22:48.661Z,6.45
2023-04-10T05:25:40.149Z,6.58
2023-04-10T05:28:20.111Z,6.66
2023-04-10T05:31:16.463Z,6.77
2023-04-10T05:34:01.327Z,6.91
2023-04-10T05:36:41.987Z,7.10
2023-04-10T05:39:28.817Z,7.26
2023-04-10T05:42:17.680Z,7.47
2023-04-10T05:44:53.812Z,7.63
2023-04-10T05:47:34.440Z,7.73
2023-04-10T05:50:23.316Z,7.86
2023-04-10T05:53:17.413Z,8.08
2023-04-10T05:56:06.145Z,8.30
2023-04-10T05:58:53.406Z,8.52
2023-04-10T06:01:56.300Z,8.56
2023-04-10T06:04:27.637Z,8.76
2023-04-10T06:07:01.458Z,8.99
2023-04-10T06:09:31.687Z,9.24
2023-04-10T06:12:01.940Z,9.48
2023-04-10T06:14:34.780Z,9.67
2023-04-10T06:17:04.984Z,9.89
2023-04-10T06:19:35.126Z,10.08
2023-04-10T06:22:05.298Z,10.27
2023-04-10T06:24:35.459Z,10.52
2023-04-10T06:27:05.799Z,10.81
2023-04-10T06:29:38.590Z,11.02
2023-04-10T06:32:08.969Z,11.19
2023-04-10T06:34:41.356Z,11.31
2023-04-10T06:37:12.985Z,11.44
2023-04-10T06:39:43.079Z,11.73
2023-04-10T06:42:13.193Z,11.74
2023-04-10T06:45:02.286Z,11.82
2023-04-10T06:47:32.586Z,12.22
2023-04-10T06:50:02.778Z,12.45
2023-04-10T06:52:32.976Z,12.78
2023-04-10T06:55:03.133Z,13.03
2023-04-10T06:57:33.225Z,13.22
2023-04-10T07:00:06.269Z,13.52
2023-04-10T07:02:36.436Z,13.79
2023-04-10T07:05:07.191Z,14.09
2023-04-10T07:07:37.437Z,14.37
2023-04-10T07:10:08.541Z,14.70
2023-04-10T07:12:38.661Z,15.00
2023-04-10T07:15:12.699Z,15.26
2023-04-10T07:17:42.906Z,15.55
2023-04-10T07:20:14.221Z,15.69
2023-04-10T07:22:44.335Z,15.80
2023-04-10T07:25:14.517Z,15.67
2023-04-10T07:27:44.631Z,15.83
2023-04-10T07:30:17.510Z,16.24
2023-04-10T07:32:47.783Z,16.54
2023-04-10T07:35:18.090Z,16.97
2023-04-10T07:37:51.802Z,17.27
2023-04-10T07:40:22.269Z,17.47
2023-04-10T07:42:53.920Z,17.62
2023-04-10T07:45:27.967Z,17.86
2023-04-10T07:47:59.610Z,18.16
2023-04-10T07:50:30.746Z,18.47
2023-04-10T07:53:03.709Z,18.66
2023-04-10T07:55:33.942Z,18.92
2023-04-10T07:58:04.146Z,19.23
2023-04-10T08:00:37.409Z,19.47
2023-04-10T08:03:07.987Z,19.89
2023-04-10T08:05:38.314Z,20.27
2023-04-10T08:08:08.539Z,20.74
2023-04-10T08:10:39.573Z,21.60
2023-04-10T08:13:09.790Z,22.22
2023-04-10T08:15:42.568Z,22.92
2023-04-10T08:18:12.771Z,23.87
2023-04-10T08:20:42.927Z,24.80
2023-04-10T08:23:20.484Z,25.62
2023-04-10T08:25:51.247Z,26.64
2023-04-10T08:28:22.515Z,27.03
2023-04-10T08:30:56.505Z,27.50
2023-04-10T08:33:26.817Z,27.91
2023-04-10T08:35:57.062Z,28.47
2023-04-10T08:38:27.899Z,28.84
2023-04-10T08:40:58.019Z,29.09
2023-04-10T08:43:29.093Z,29.17
2023-04-10T08:46:02.247Z,29.15
2023-04-10T08:48:38.705Z,29.41
2023-04-10T08:51:18.614Z,29.19
2023-04-10T08:53:53.998Z,29.09
2023-04-10T08:56:24.879Z,29.25
2023-04-10T08:58:55.349Z,29.34
2023-04-10T09:01:28.611Z,29.02
2023-04-10T09:03:59.764Z,28.79
2023-04-10T09:06:30.360Z,28.77
2023-04-10T09:12:04.115Z,28.69
2023-04-10T09:14:35.813Z,28.39
2023-04-10T09:17:24.825Z,28.66
2023-04-10T09:19:57.370Z,28.71
2023-04-10T09:22:34.044Z,28.58
2023-04-10T09:25:05.942Z,28.82
2023-04-10T09:27:39.544Z,28.67
2023-04-10T09:30:13.306Z,28.67
2023-04-10T09:32:47.493Z,28.60
2023-04-10T09:35:18.793Z,27.62
2023-04-10T09:37:49.286Z,27.80
2023-04-10T09:40:27.406Z,28.00
2023-04-10T09:42:58.998Z,28.11
2023-04-10T09:45:29.178Z,28.30
2023-04-10T09:48:10.731Z,27.94
2023-04-10T09:50:42.403Z,27.86
2023-04-10T09:53:12.876Z,28.51
2023-04-10T09:55:43.921Z,28.70
2023-04-10T09:58:15.133Z,28.67
2023-04-10T10:00:46.232Z,28.87
2023-04-10T10:03:21.498Z,29.02
2023-04-10T10:05:53.530Z,29.36
2023-04-10T10:08:24.189Z,29.62
2023-04-10T10:10:56.757Z,29.27
2023-04-10T10:13:29.731Z,29.26
2023-04-10T10:16:07.719Z,29.05
2023-04-10T10:18:45.747Z,29.09
2023-04-10T10:21:17.092Z,29.33
2023-04-10T10:23:47.994Z,29.40
2023-04-10T10:26:19.012Z,28.65
2023-04-10T10:28:50.128Z,28.76
2023-04-10T10:31:22.802Z,28.96
2023-04-10T10:33:57.442Z,29.01
2023-04-10T10:36:28.424Z,29.01
2023-04-10T10:39:11.858Z,29.16
2023-04-10T10:41:47.733Z,29.30
2023-04-10T10:44:24.472Z,29.37
2023-04-10T10:47:01.698Z,29.51
2023-04-10T10:50:01.971Z,29.90
2023-04-10T10:52:46.224Z,30.22
2023-04-10T10:55:35.283Z,28.58
2023-04-10T10:58:06.647Z,28.11
2023-04-10T11:01:13.005Z,26.48
2023-04-10T11:03:44.871Z,24.77
2023-04-10T11:06:19.883Z,23.84
2023-04-10T11:08:53.795Z,24.20
2023-04-10T11:11:25.620Z,23.55
2023-04-10T11:14:23.337Z,23.01
2023-04-10T11:16:53.635Z,21.82
2023-04-10T11:19:26.525Z,23.00
2023-04-10T11:22:15.720Z,25.06
2023-04-10T11:25:02.822Z,24.64
2023-04-10T11:27:45.135Z,23.74
2023-04-10T11:30:30.999Z,25.00
2023-04-10T11:33:01.698Z,26.59
2023-04-10T11:35:32.210Z,26.09
2023-04-10T11:38:15.994Z,26.55
2023-04-10T11:41:04.428Z,27.01
2023-04-10T11:43:36.131Z,27.75
2023-04-10T11:46:09.087Z,28.40
2023-04-10T11:48:39.919Z,28.06
2023-04-10T11:51:11.660Z,28.13
2023-04-10T11:53:45.221Z,28.20
2023-04-10T11:56:23.311Z,29.07
2023-04-10T11:58:55.368Z,29.79
2023-04-10T12:01:26.459Z,29.96
2023-04-10T12:03:57.312Z,30.47
2023-04-10T12:06:27.850Z,30.92
2023-04-10T12:09:00.688Z,30.88
2023-04-10T12:11:30.918Z,30.86
2023-04-10T12:14:01.157Z,30.32
2023-04-10T12:16:31.386Z,30.55
2023-04-10T12:19:01.753Z,30.85
2023-04-10T12:21:31.993Z,29.62
2023-04-10T12:24:04.854Z,31.12
2023-04-10T12:26:35.068Z,30.17
2023-04-10T12:29:06.596Z,31.26
2023-04-10T12:31:39.231Z,29.36
2023-04-10T12:34:11.382Z,29.09
2023-04-10T12:36:41.758Z,29.94
2023-04-10T12:39:27.051Z,28.42
2023-04-10T12:41:57.282Z,29.50
2023-04-10T12:44:27.585Z,30.09
2023-04-10T12:47:02.975Z,31.22
2023-04-10T12:49:33.225Z,31.77
2023-04-10T12:52:03.419Z,32.26
2023-04-10T12:54:37.604Z,32.05
2023-04-10T12:57:09.621Z,32.38
2023-04-10T12:59:39.838Z,30.57
2023-04-10T13:02:10.116Z,29.07
2023-04-10T13:04:40.688Z,29.91
2023-04-10T13:07:11.045Z,29.89
2023-04-10T13:09:44.023Z,29.80
2023-04-10T13:12:14.780Z,30.26
2023-04-10T13:14:44.985Z,29.99
2023-04-10T13:17:15.192Z,30.68
2023-04-10T13:19:45.477Z,31.13
2023-04-10T13:22:15.682Z,30.52
2023-04-10T13:24:48.646Z,30.81
2023-04-10T13:27:18.851Z,30.48
2023-04-10T13:29:49.044Z,31.29
2023-04-10T13:32:19.289Z,31.79
2023-04-10T13:34:49.510Z,31.83
2023-04-10T13:37:20.561Z,32.30
2023-04-10T13:39:53.689Z,32.05
2023-04-10T13:42:23.942Z,32.49
2023-04-10T13:44:54.166Z,32.10
2023-04-10T13:47:24.561Z,31.59
2023-04-10T13:49:54.810Z,31.74
2023-04-10T13:52:25.031Z,31.17
2023-04-10T13:54:57.870Z,31.55
2023-04-10T13:57:28.091Z,31.20
2023-04-10T13:59:58.314Z,30.95
2023-04-10T14:02:28.764Z,30.68
2023-04-10T14:04:59.044Z,31.38
2023-04-10T14:07:29.411Z,31.10
2023-04-10T14:10:02.287Z,31.30
2023-04-10T14:12:32.538Z,31.16
2023-04-10T14:15:02.775Z,31.56
2023-04-10T14:17:33.120Z,30.85
2023-04-10T14:20:03.306Z,31.00
2023-04-10T14:22:33.523Z,31.21
2023-04-10T14:25:12.945Z,31.03
2023-04-10T14:27:44.048Z,30.96
2023-04-10T14:30:15.011Z,31.34
2023-04-10T14:32:45.247Z,30.78
2023-04-10T14:35:15.729Z,30.50
2023-04-10T14:37:45.930Z,30.94
2023-04-10T14:40:18.782Z,31.00
2023-04-10T14:42:48.985Z,31.27
2023-04-10T14:45:20.010Z,30.95
2023-04-10T14:47:50.402Z,29.56
2023-04-10T14:50:20.863Z,29.34
2023-04-10T14:52:51.092Z,29.05
2023-04-10T14:55:24.987Z,28.83
2023-04-10T14:57:56.612Z,28.73
2023-04-10T15:00:29.980Z,28.57
2023-04-10T15:03:00.390Z,28.15
2023-04-10T15:05:31.211Z,27.76
2023-04-10T15:08:01.512Z,27.95
2023-04-10T15:10:35.007Z,27.85
2023-04-10T15:13:06.222Z,27.96
2023-04-10T15:15:36.480Z,27.98
2023-04-10T15:18:06.896Z,27.89
2023-04-10T15:20:37.100Z,27.72
2023-04-10T15:23:07.274Z,27.79
2023-04-10T15:25:40.223Z,27.25
2023-04-10T15:28:10.902Z,27.12
2023-04-10T15:30:41.137Z,27.36
2023-04-10T15:33:11.448Z,27.13
2023-04-10T15:35:41.659Z,26.99
2023-04-10T15:38:11.867Z,26.64
2023-04-10T15:40:44.769Z,25.47
2023-04-10T15:43:15.987Z,25.13
2023-04-10T15:45:46.776Z,24.40
2023-04-10T15:48:16.938Z,23.49
2023-04-10T15:50:47.338Z,23.36
2023-04-10T15:53:17.784Z,22.83
2023-04-10T15:55:50.669Z,22.29
2023-04-10T15:58:20.908Z,21.75
2023-04-10T16:00:51.121Z,21.49
2023-04-10T16:03:21.417Z,20.81
2023-04-10T16:05:51.745Z,20.60
2023-04-10T16:08:21.982Z,20.62
2023-04-10T16:10:54.818Z,20.47
2023-04-10T16:13:25.148Z,20.22
2023-04-10T16:15:55.468Z,20.08
2023-04-10T16:18:25.718Z,19.63
2023-04-10T16:20:55.978Z,19.46
2023-04-10T16:23:26.234Z,19.21
2023-04-10T16:25:59.096Z,19.07
2023-04-10T16:28:29.233Z,18.83
2023-04-10T16:30:59.809Z,18.67
2023-04-10T16:33:29.990Z,18.63
2023-04-10T16:36:03.151Z,18.26
2023-04-10T16:38:34.801Z,18.11
2023-04-10T16:41:10.179Z,17.92
2023-04-10T16:43:40.440Z,17.85
2023-04-10T16:46:10.882Z,17.68
2023-04-10T16:48:41.370Z,17.44
2023-04-10T16:51:12.604Z,17.22
2023-04-10T16:53:42.750Z,17.15
2023-04-10T16:56:15.661Z,17.19
2023-04-10T16:58:45.901Z,17.05
2023-04-10T17:01:19.954Z,16.98
2023-04-10T17:03:50.464Z,16.90
2023-04-10T17:06:21.360Z,16.86
2023-04-10T17:08:51.628Z,16.68
2023-04-10T17:11:24.489Z,16.73
2023-04-10T17:13:54.683Z,16.72
2023-04-10T17:16:24.986Z,16.79
2023-04-10T17:18:55.253Z,16.70
2023-04-10T17:21:27.362Z,16.62
2023-04-10T17:23:57.598Z,16.48
2023-04-10T17:26:31.025Z,16.38
2023-04-10T17:29:01.297Z,16.30
2023-04-10T17:31:32.049Z,16.22
2023-04-10T17:34:02.273Z,16.21
2023-04-10T17:36:32.742Z,16.21
2023-04-10T17:39:03.264Z,16.12
2023-04-10T17:41:36.090Z,16.02
2023-04-10T17:44:06.323Z,15.93
2023-04-10T17:46:36.597Z,15.90
2023-04-10T17:49:06.916Z,15.80
2023-04-10T17:51:37.353Z,15.72
2023-04-10T17:54:07.609Z,15.67
2023-04-10T17:56:40.479Z,15.60
2023-04-10T17:59:10.703Z,15.60
2023-04-10T18:01:41.090Z,15.49
2023-04-10T18:04:11.597Z,15.42
2023-04-10T18:06:41.834Z,15.37
2023-04-10T18:09:12.118Z,15.32
2023-04-10T18:11:45.083Z,15.25
2023-04-10T18:14:15.369Z,15.19
2023-04-10T18:16:45.613Z,15.03
2023-04-10T18:19:15.872Z,14.98
2023-04-10T18:21:46.268Z,14.91
2023-04-10T18:24:16.877Z,14.91
2023-04-10T18:26:50.916Z,14.94
2023-04-10T18:29:21.107Z,14.91
2023-04-10T18:31:51.661Z,14.89
2023-04-10T18:34:21.871Z,14.78
2023-04-10T18:36:52.080Z,14.87
2023-04-10T18:39:22.398Z,14.95
2023-04-10T18:41:57.553Z,14.96
2023-04-10T18:44:29.566Z,14.83
2023-04-10T18:47:04.355Z,14.80
2023-04-10T18:49:35.208Z,14.80
2023-04-10T18:52:05.551Z,14.83
2023-04-10T18:54:36.560Z,14.84
2023-04-10T18:57:09.533Z,14.69
2023-04-10T18:59:40.956Z,14.73
2023-04-10T19:02:11.238Z,14.67
2023-04-10T19:04:41.672Z,14.57
2023-04-10T19:07:11.855Z,14.50
2023-04-10T19:09:42.092Z,14.56
2023-04-10T19:12:14.956Z,14.62
2023-04-10T19:14:45.214Z,14.60
2023-04-10T19:17:15.424Z,14.55
2023-04-10T19:19:45.640Z,14.47
2023-04-10T19:22:16.583Z,14.40
2023-04-10T19:24:46.814Z,14.37
2023-04-10T19:27:19.632Z,14.33
2023-04-10T19:29:49.817Z,14.35
2023-04-10T19:32:19.998Z,14.33
2023-04-10T19:34:51.627Z,14.30
2023-04-10T19:37:22.232Z,14.26
2023-04-10T19:39:52.479Z,14.31
2023-04-10T19:42:25.225Z,14.34
2023-04-10T19:44:55.778Z,14.39
2023-04-10T19:47:26.112Z,14.40
2023-04-10T19:49:56.400Z,14.34
2023-04-10T19:52:26.799Z,14.28
2023-04-10T19:54:57.041Z,14.26
2023-04-10T19:57:29.980Z,14.18
2023-04-10T20:00:00.478Z,14.16
2023-04-10T20:02:31.040Z,14.15
2023-04-10T20:05:01.750Z,14.11
2023-04-10T20:07:32.153Z,14.05
2023-04-10T20:10:03.555Z,14.06
2023-04-10T20:12:36.563Z,14.00
2023-04-10T20:15:08.641Z,13.93
2023-04-10T20:17:39.215Z,13.90
2023-04-10T20:20:12.490Z,13.87
2023-04-10T20:22:43.315Z,13.83
2023-04-10T20:25:13.665Z,13.64
2023-04-10T20:27:46.450Z,13.57
2023-04-10T20:30:16.801Z,13.57
2023-04-10T20:32:47.311Z,13.49
2023-04-10T20:35:17.688Z,13.45
2023-04-10T20:37:47.898Z,13.40
2023-04-10T20:40:18.195Z,13.49
2023-04-10T20:42:52.970Z,13.39
2023-04-10T20:45:23.215Z,13.38
2023-04-10T20:47:53.502Z,13.42
2023-04-10T20:50:23.777Z,13.42
2023-04-10T20:52:54.004Z,13.33
2023-04-10T20:55:24.212Z,13.31
2023-04-10T20:57:58.241Z,13.31
2023-04-10T21:00:31.006Z,13.31
2023-04-10T21:03:01.434Z,13.26
2023-04-10T21:05:31.744Z,13.33
2023-04-10T21:08:02.038Z,13.25
2023-04-10T21:10:32.478Z,13.24
2023-04-10T21:13:05.750Z,13.24
2023-04-10T21:15:35.961Z,13.25
2023-04-10T21:18:06.514Z,13.25
2023-04-10T21:20:36.961Z,13.21
2023-04-10T21:23:07.207Z,13.16
2023-04-10T21:25:38.889Z,13.13
2023-04-10T21:28:11.744Z,13.19
2023-04-10T21:30:42.006Z,13.11
2023-04-10T21:33:12.225Z,13.13
2023-04-10T21:35:45.429Z,13.09
2023-04-10T21:38:16.018Z,13.11
2023-04-10T21:40:53.436Z,13.18
2023-04-10T21:43:26.271Z,13.12
2023-04-10T21:45:56.689Z,13.16
2023-04-10T21:48:26.969Z,13.16
2023-04-10T21:50:57.348Z,13.21
2023-04-10T21:53:27.536Z,13.24
2023-04-10T21:55:57.761Z,13.15
2023-04-10T21:58:32.435Z,13.21
2023-04-10T22:01:03.594Z,13.34
2023-04-10T22:03:34.092Z,13.25
2023-04-10T22:06:04.417Z,13.26
2023-04-10T22:08:34.637Z,13.17
2023-04-10T22:11:04.843Z,13.19
2023-04-10T22:13:37.693Z,13.22
2023-04-10T22:16:08.364Z,13.26
2023-04-10T22:18:38.613Z,13.28
2023-04-10T22:21:09.168Z,13.24
2023-04-10T22:23:39.356Z,13.13
2023-04-10T22:26:10.116Z,13.18
2023-04-10T22:28:42.989Z,13.11
2023-04-10T22:31:17.705Z,13.04
2023-04-10T22:33:49.409Z,13.03
2023-04-10T22:36:19.598Z,13.01
2023-04-10T22:38:49.774Z,13.06
2023-04-10T22:41:19.994Z,13.06
2023-04-10T22:43:53.061Z,13.08
2023-04-10T22:46:23.328Z,13.03
2023-04-10T22:48:53.806Z,12.97
2023-04-10T22:51:24.147Z,12.97
2023-04-10T22:53:54.554Z,12.87
2023-04-10T22:56:26.726Z,12.88
2023-04-10T22:58:59.524Z,12.84
2023-04-10T23:01:30.271Z,12.90
2023-04-10T23:04:00.482Z,12.82
2023-04-10T23:06:32.028Z,12.64
2023-04-10T23:09:02.238Z,12.62
2023-04-10T23:11:33.411Z,12.62
2023-04-10T23:14:06.305Z,12.75
2023-04-10T23:16:36.498Z,12.81
2023-04-10T23:19:06.653Z,12.70
2023-04-10T23:21:36.858Z,12.70
2023-04-10T23:24:07.431Z,12.66
2023-04-10T23:26:37.596Z,12.64
2023-04-10T23:29:10.349Z,12.64
2023-04-10T23:31:40.703Z,12.69
2023-04-10T23:34:11.087Z,12.60
2023-04-10T23:36:41.384Z,12.54
2023-04-10T23:39:11.701Z,12.56
2023-04-10T23:41:41.976Z,12.50
2023-04-10T23:44:14.901Z,12.58
2023-04-10T23:46:45.056Z,12.48
2023-04-10T23:49:15.324Z,12.48
2023-04-10T23:51:45.497Z,12.45
2023-04-10T23:54:16.006Z,12.46
2023-04-10T23:56:46.167Z,12.55
2023-04-10T23:59:19.336Z,12.65
